sensor_id;sensor_type;location;lat;lon;timestamp;P1;durP1;ratioP1;P2;durP2;ratioP2
33836;SDS011;20140;49.356;8.812;2024-01-10T00:02:17;7.43;;;4.63;;
33836;SDS011;20140;49.356;8.812;2024-01-10T00:04:42;8.97;;;5.20;;
33836;SDS011;20140;49.356;8.812;2024-01-10T00:07:09;7.05;;;4.43;;
33836;SDS011;20140;49.356;8.812;2024-01-10T00:09:34;7.28;;;4.57;;
33836;SDS011;20140;49.356;8.812;2024-01-10T00:12:00;10.52;;;6.60;;
33836;SDS011;20140;49.356;8.812;2024-01-10T00:14:26;6.18;;;4.68;;
33836;SDS011;20140;49.356;8.812;2024-01-10T00:16:52;9.90;;;6.18;;
33836;SDS011;20140;49.356;8.812;2024-01-10T00:19:17;11.15;;;6.63;;
33836;SDS011;20140;49.356;8.812;2024-01-10T00:21:43;7.53;;;4.70;;
33836;SDS011;20140;49.356;8.812;2024-01-10T00:24:09;9.30;;;4.60;;
33836;SDS011;20140;49.356;8.812;2024-01-10T00:26:34;9.67;;;6.50;;
33836;SDS011;20140;49.356;8.812;2024-01-10T00:29:02;7.72;;;5.60;;
33836;SDS011;20140;49.356;8.812;2024-01-10T00:31:27;14.00;;;7.22;;
33836;SDS011;20140;49.356;8.812;2024-01-10T00:33:53;6.13;;;4.60;;
33836;SDS011;20140;49.356;8.812;2024-01-10T00:36:20;12.52;;;6.47;;
33836;SDS011;20140;49.356;8.812;2024-01-10T00:38:47;9.18;;;4.85;;
33836;SDS011;20140;49.356;8.812;2024-01-10T00:41:13;7.85;;;4.97;;
33836;SDS011;20140;49.356;8.812;2024-01-10T00:43:39;7.18;;;4.45;;
33836;SDS011;20140;49.356;8.812;2024-01-10T00:46:05;6.83;;;4.63;;
33836;SDS011;20140;49.356;8.812;2024-01-10T00:48:31;7.97;;;5.70;;
33836;SDS011;20140;49.356;8.812;2024-01-10T00:50:57;9.88;;;5.38;;
33836;SDS011;20140;49.356;8.812;2024-01-10T00:53:23;7.13;;;5.18;;
33836;SDS011;20140;49.356;8.812;2024-01-10T00:55:48;7.13;;;4.75;;
33836;SDS011;20140;49.356;8.812;2024-01-10T00:58:14;6.70;;;4.97;;
33836;SDS011;20140;49.356;8.812;2024-01-10T01:00:39;7.00;;;5.03;;
33836;SDS011;20140;49.356;8.812;2024-01-10T01:03:06;7.13;;;4.90;;
33836;SDS011;20140;49.356;8.812;2024-01-10T01:05:32;6.38;;;4.40;;
33836;SDS011;20140;49.356;8.812;2024-01-10T01:07:58;8.07;;;5.50;;
33836;SDS011;20140;49.356;8.812;2024-01-10T01:10:27;8.13;;;5.28;;
33836;SDS011;20140;49.356;8.812;2024-01-10T01:12:53;7.82;;;4.70;;
33836;SDS011;20140;49.356;8.812;2024-01-10T01:15:18;8.10;;;4.90;;
33836;SDS011;20140;49.356;8.812;2024-01-10T01:17:44;7.93;;;5.13;;
33836;SDS011;20140;49.356;8.812;2024-01-10T01:20:10;7.72;;;4.97;;
33836;SDS011;20140;49.356;8.812;2024-01-10T01:22:37;8.60;;;5.18;;
33836;SDS011;20140;49.356;8.812;2024-01-10T01:25:02;7.32;;;5.40;;
33836;SDS011;20140;49.356;8.812;2024-01-10T01:27:28;7.63;;;5.25;;
33836;SDS011;20140;49.356;8.812;2024-01-10T01:29:54;8.50;;;5.27;;
33836;SDS011;20140;49.356;8.812;2024-01-10T01:32:20;7.47;;;5.25;;
33836;SDS011;20140;49.356;8.812;2024-01-10T01:34:47;4.82;;;3.85;;
33836;SDS011;20140;49.356;8.812;2024-01-10T01:37:13;8.50;;;5.50;;
33836;SDS011;20140;49.356;8.812;2024-01-10T01:39:38;7.28;;;4.80;;
33836;SDS011;20140;49.356;8.812;2024-01-10T01:42:05;8.13;;;4.40;;
33836;SDS011;20140;49.356;8.812;2024-01-10T01:44:34;9.52;;;5.15;;
33836;SDS011;20140;49.356;8.812;2024-01-10T01:47:01;9.02;;;4.97;;
33836;SDS011;20140;49.356;8.812;2024-01-10T01:49:26;7.87;;;5.37;;
33836;SDS011;20140;49.356;8.812;2024-01-10T01:51:56;8.20;;;4.75;;
33836;SDS011;20140;49.356;8.812;2024-01-10T01:54:22;6.90;;;4.70;;
33836;SDS011;20140;49.356;8.812;2024-01-10T01:56:48;7.88;;;5.13;;
33836;SDS011;20140;49.356;8.812;2024-01-10T01:59:16;7.40;;;5.17;;
33836;SDS011;20140;49.356;8.812;2024-01-10T02:01:42;6.15;;;4.25;;
33836;SDS011;20140;49.356;8.812;2024-01-10T02:04:09;9.95;;;5.55;;
33836;SDS011;20140;49.356;8.812;2024-01-10T02:06:37;7.33;;;4.93;;
33836;SDS011;20140;49.356;8.812;2024-01-10T02:09:02;6.97;;;5.05;;
33836;SDS011;20140;49.356;8.812;2024-01-10T02:11:29;8.25;;;4.85;;
33836;SDS011;20140;49.356;8.812;2024-01-10T02:13:57;9.10;;;5.40;;
33836;SDS011;20140;49.356;8.812;2024-01-10T02:16:27;6.78;;;4.97;;
33836;SDS011;20140;49.356;8.812;2024-01-10T02:18:52;11.23;;;5.53;;
33836;SDS011;20140;49.356;8.812;2024-01-10T02:21:24;7.57;;;4.93;;
33836;SDS011;20140;49.356;8.812;2024-01-10T02:23:51;7.57;;;4.90;;
33836;SDS011;20140;49.356;8.812;2024-01-10T02:26:16;9.23;;;4.90;;
33836;SDS011;20140;49.356;8.812;2024-01-10T02:28:43;6.43;;;4.83;;
33836;SDS011;20140;49.356;8.812;2024-01-10T02:31:10;8.38;;;5.13;;
33836;SDS011;20140;49.356;8.812;2024-01-10T02:33:36;11.07;;;5.75;;
33836;SDS011;20140;49.356;8.812;2024-01-10T02:36:02;6.22;;;4.75;;
33836;SDS011;20140;49.356;8.812;2024-01-10T02:38:29;6.47;;;4.77;;
33836;SDS011;20140;49.356;8.812;2024-01-10T02:40:58;8.55;;;5.78;;
33836;SDS011;20140;49.356;8.812;2024-01-10T02:43:27;8.57;;;5.32;;
33836;SDS011;20140;49.356;8.812;2024-01-10T02:45:57;7.50;;;4.63;;
33836;SDS011;20140;49.356;8.812;2024-01-10T02:48:25;8.27;;;5.47;;
33836;SDS011;20140;49.356;8.812;2024-01-10T02:50:50;6.32;;;4.63;;
33836;SDS011;20140;49.356;8.812;2024-01-10T02:53:16;7.90;;;4.80;;
33836;SDS011;20140;49.356;8.812;2024-01-10T02:55:43;9.13;;;5.35;;
33836;SDS011;20140;49.356;8.812;2024-01-10T02:58:11;8.95;;;5.45;;
33836;SDS011;20140;49.356;8.812;2024-01-10T03:00:38;7.82;;;4.93;;
33836;SDS011;20140;49.356;8.812;2024-01-10T03:03:04;8.75;;;5.07;;
33836;SDS011;20140;49.356;8.812;2024-01-10T03:05:32;8.60;;;5.47;;
33836;SDS011;20140;49.356;8.812;2024-01-10T03:08:00;8.50;;;6.07;;
33836;SDS011;20140;49.356;8.812;2024-01-10T03:10:28;7.65;;;5.15;;
33836;SDS011;20140;49.356;8.812;2024-01-10T03:12:54;9.38;;;4.95;;
33836;SDS011;20140;49.356;8.812;2024-01-10T03:15:19;7.75;;;5.45;;
33836;SDS011;20140;49.356;8.812;2024-01-10T03:17:51;7.03;;;5.20;;
33836;SDS011;20140;49.356;8.812;2024-01-10T03:20:18;6.50;;;4.57;;
33836;SDS011;20140;49.356;8.812;2024-01-10T03:22:46;7.70;;;5.05;;
33836;SDS011;20140;49.356;8.812;2024-01-10T03:25:12;7.50;;;5.18;;
33836;SDS011;20140;49.356;8.812;2024-01-10T03:27:38;7.55;;;4.28;;
33836;SDS011;20140;49.356;8.812;2024-01-10T03:30:05;8.85;;;5.22;;
33836;SDS011;20140;49.356;8.812;2024-01-10T03:32:31;9.95;;;4.75;;
33836;SDS011;20140;49.356;8.812;2024-01-10T03:34:58;9.23;;;5.05;;
33836;SDS011;20140;49.356;8.812;2024-01-10T03:37:24;6.88;;;4.63;;
33836;SDS011;20140;49.356;8.812;2024-01-10T03:39:51;8.88;;;5.03;;
33836;SDS011;20140;49.356;8.812;2024-01-10T03:42:17;7.75;;;5.40;;
33836;SDS011;20140;49.356;8.812;2024-01-10T03:44:42;8.20;;;4.80;;
33836;SDS011;20140;49.356;8.812;2024-01-10T03:47:08;5.93;;;4.10;;
33836;SDS011;20140;49.356;8.812;2024-01-10T03:49:37;6.45;;;5.18;;
33836;SDS011;20140;49.356;8.812;2024-01-10T03:52:03;8.88;;;5.65;;
33836;SDS011;20140;49.356;8.812;2024-01-10T03:54:29;8.57;;;5.43;;
33836;SDS011;20140;49.356;8.812;2024-01-10T03:56:55;6.63;;;4.50;;
33836;SDS011;20140;49.356;8.812;2024-01-10T03:59:21;9.18;;;5.15;;
33836;SDS011;20140;49.356;8.812;2024-01-10T04:01:47;7.90;;;4.88;;
33836;SDS011;20140;49.356;8.812;2024-01-10T04:04:13;12.07;;;5.82;;
33836;SDS011;20140;49.356;8.812;2024-01-10T04:06:39;7.82;;;4.65;;
33836;SDS011;20140;49.356;8.812;2024-01-10T04:09:04;10.60;;;6.60;;
33836;SDS011;20140;49.356;8.812;2024-01-10T04:11:33;8.80;;;4.97;;
33836;SDS011;20140;49.356;8.812;2024-01-10T04:14:00;8.07;;;5.55;;
33836;SDS011;20140;49.356;8.812;2024-01-10T04:16:26;7.47;;;4.60;;
33836;SDS011;20140;49.356;8.812;2024-01-10T04:18:52;7.85;;;5.03;;
33836;SDS011;20140;49.356;8.812;2024-01-10T04:21:18;8.83;;;4.97;;
33836;SDS011;20140;49.356;8.812;2024-01-10T04:23:43;9.73;;;6.00;;
33836;SDS011;20140;49.356;8.812;2024-01-10T04:26:09;9.73;;;6.13;;
33836;SDS011;20140;49.356;8.812;2024-01-10T04:28:34;8.40;;;5.57;;
33836;SDS011;20140;49.356;8.812;2024-01-10T04:31:05;7.82;;;5.60;;
33836;SDS011;20140;49.356;8.812;2024-01-10T04:33:31;9.70;;;6.03;;
33836;SDS011;20140;49.356;8.812;2024-01-10T04:35:57;9.43;;;5.25;;
33836;SDS011;20140;49.356;8.812;2024-01-10T04:38:22;8.98;;;5.00;;
33836;SDS011;20140;49.356;8.812;2024-01-10T04:40:51;9.25;;;5.57;;
33836;SDS011;20140;49.356;8.812;2024-01-10T04:43:17;9.80;;;6.27;;
33836;SDS011;20140;49.356;8.812;2024-01-10T04:45:44;9.23;;;5.35;;
33836;SDS011;20140;49.356;8.812;2024-01-10T04:48:13;8.68;;;6.20;;
33836;SDS011;20140;49.356;8.812;2024-01-10T04:50:38;8.80;;;5.13;;
33836;SDS011;20140;49.356;8.812;2024-01-10T04:53:04;8.73;;;5.83;;
33836;SDS011;20140;49.356;8.812;2024-01-10T04:55:30;9.80;;;5.17;;
33836;SDS011;20140;49.356;8.812;2024-01-10T04:57:55;8.43;;;5.70;;
33836;SDS011;20140;49.356;8.812;2024-01-10T05:00:22;9.77;;;6.15;;
33836;SDS011;20140;49.356;8.812;2024-01-10T05:02:48;9.27;;;5.80;;
33836;SDS011;20140;49.356;8.812;2024-01-10T05:05:13;7.78;;;5.05;;
33836;SDS011;20140;49.356;8.812;2024-01-10T05:07:50;10.23;;;5.28;;
33836;SDS011;20140;49.356;8.812;2024-01-10T05:10:18;9.00;;;6.05;;
33836;SDS011;20140;49.356;8.812;2024-01-10T05:12:44;7.07;;;5.47;;
33836;SDS011;20140;49.356;8.812;2024-01-10T05:15:13;8.93;;;6.13;;
33836;SDS011;20140;49.356;8.812;2024-01-10T05:17:41;7.33;;;5.73;;
33836;SDS011;20140;49.356;8.812;2024-01-10T05:20:07;11.47;;;6.63;;
33836;SDS011;20140;49.356;8.812;2024-01-10T05:22:35;9.25;;;5.45;;
33836;SDS011;20140;49.356;8.812;2024-01-10T05:25:02;9.00;;;5.40;;
33836;SDS011;20140;49.356;8.812;2024-01-10T05:27:28;10.73;;;5.95;;
33836;SDS011;20140;49.356;8.812;2024-01-10T05:29:54;10.97;;;5.33;;
33836;SDS011;20140;49.356;8.812;2024-01-10T05:32:21;9.93;;;5.80;;
33836;SDS011;20140;49.356;8.812;2024-01-10T05:34:48;7.03;;;5.47;;
33836;SDS011;20140;49.356;8.812;2024-01-10T05:37:14;8.18;;;5.10;;
33836;SDS011;20140;49.356;8.812;2024-01-10T05:39:41;9.10;;;5.28;;
33836;SDS011;20140;49.356;8.812;2024-01-10T05:42:06;6.93;;;5.07;;
33836;SDS011;20140;49.356;8.812;2024-01-10T05:44:33;6.82;;;4.75;;
33836;SDS011;20140;49.356;8.812;2024-01-10T05:46:58;8.13;;;5.15;;
33836;SDS011;20140;49.356;8.812;2024-01-10T05:49:28;7.35;;;4.70;;
33836;SDS011;20140;49.356;8.812;2024-01-10T05:51:54;8.27;;;5.37;;
33836;SDS011;20140;49.356;8.812;2024-01-10T05:54:21;8.25;;;5.25;;
33836;SDS011;20140;49.356;8.812;2024-01-10T05:56:48;8.52;;;5.78;;
33836;SDS011;20140;49.356;8.812;2024-01-10T05:59:15;8.82;;;5.43;;
33836;SDS011;20140;49.356;8.812;2024-01-10T06:01:41;10.88;;;6.47;;
33836;SDS011;20140;49.356;8.812;2024-01-10T06:04:07;8.90;;;5.85;;
33836;SDS011;20140;49.356;8.812;2024-01-10T06:06:33;6.90;;;5.00;;
33836;SDS011;20140;49.356;8.812;2024-01-10T06:09:00;8.48;;;5.25;;
33836;SDS011;20140;49.356;8.812;2024-01-10T06:11:25;8.97;;;5.93;;
33836;SDS011;20140;49.356;8.812;2024-01-10T06:13:51;9.80;;;5.23;;
33836;SDS011;20140;49.356;8.812;2024-01-10T06:16:18;8.82;;;5.43;;
33836;SDS011;20140;49.356;8.812;2024-01-10T06:18:43;9.23;;;4.90;;
33836;SDS011;20140;49.356;8.812;2024-01-10T06:21:09;8.60;;;6.00;;
33836;SDS011;20140;49.356;8.812;2024-01-10T06:23:35;10.45;;;6.25;;
33836;SDS011;20140;49.356;8.812;2024-01-10T06:26:01;11.45;;;6.43;;
33836;SDS011;20140;49.356;8.812;2024-01-10T06:28:27;7.68;;;4.32;;
33836;SDS011;20140;49.356;8.812;2024-01-10T06:30:52;7.87;;;5.13;;
33836;SDS011;20140;49.356;8.812;2024-01-10T06:33:18;10.10;;;5.85;;
33836;SDS011;20140;49.356;8.812;2024-01-10T06:35:45;12.73;;;6.50;;
33836;SDS011;20140;49.356;8.812;2024-01-10T06:38:12;7.03;;;4.90;;
33836;SDS011;20140;49.356;8.812;2024-01-10T06:40:39;8.07;;;6.20;;
33836;SDS011;20140;49.356;8.812;2024-01-10T06:43:05;9.80;;;5.88;;
33836;SDS011;20140;49.356;8.812;2024-01-10T06:45:34;9.55;;;6.03;;
33836;SDS011;20140;49.356;8.812;2024-01-10T06:48:00;8.03;;;6.17;;
33836;SDS011;20140;49.356;8.812;2024-01-10T06:50:25;6.38;;;4.55;;
33836;SDS011;20140;49.356;8.812;2024-01-10T06:52:51;7.63;;;5.25;;
33836;SDS011;20140;49.356;8.812;2024-01-10T06:55:18;7.30;;;4.78;;
33836;SDS011;20140;49.356;8.812;2024-01-10T06:57:45;9.73;;;5.28;;
33836;SDS011;20140;49.356;8.812;2024-01-10T07:00:11;9.13;;;6.10;;
33836;SDS011;20140;49.356;8.812;2024-01-10T07:02:40;8.48;;;5.75;;
33836;SDS011;20140;49.356;8.812;2024-01-10T07:05:08;10.02;;;5.68;;
33836;SDS011;20140;49.356;8.812;2024-01-10T07:07:35;8.98;;;5.70;;
33836;SDS011;20140;49.356;8.812;2024-01-10T07:10:03;8.23;;;5.95;;
33836;SDS011;20140;49.356;8.812;2024-01-10T07:12:38;8.48;;;5.45;;
33836;SDS011;20140;49.356;8.812;2024-01-10T07:15:04;9.10;;;6.07;;
33836;SDS011;20140;49.356;8.812;2024-01-10T07:17:30;10.63;;;6.63;;
33836;SDS011;20140;49.356;8.812;2024-01-10T07:19:56;8.53;;;5.70;;
33836;SDS011;20140;49.356;8.812;2024-01-10T07:22:30;8.75;;;6.15;;
33836;SDS011;20140;49.356;8.812;2024-01-10T07:24:58;11.02;;;5.50;;
33836;SDS011;20140;49.356;8.812;2024-01-10T07:27:26;6.97;;;5.05;;
33836;SDS011;20140;49.356;8.812;2024-01-10T07:29:52;8.57;;;5.57;;
33836;SDS011;20140;49.356;8.812;2024-01-10T07:32:19;8.50;;;5.83;;
33836;SDS011;20140;49.356;8.812;2024-01-10T07:34:44;8.38;;;5.85;;
33836;SDS011;20140;49.356;8.812;2024-01-10T07:37:12;10.13;;;6.03;;
33836;SDS011;20140;49.356;8.812;2024-01-10T07:39:38;11.15;;;6.82;;
33836;SDS011;20140;49.356;8.812;2024-01-10T07:42:06;11.23;;;6.70;;
33836;SDS011;20140;49.356;8.812;2024-01-10T07:44:32;9.13;;;5.70;;
33836;SDS011;20140;49.356;8.812;2024-01-10T07:46:58;10.17;;;6.20;;
33836;SDS011;20140;49.356;8.812;2024-01-10T07:49:25;9.90;;;6.47;;
33836;SDS011;20140;49.356;8.812;2024-01-10T07:51:51;8.73;;;6.32;;
33836;SDS011;20140;49.356;8.812;2024-01-10T07:54:16;7.53;;;5.87;;
33836;SDS011;20140;49.356;8.812;2024-01-10T07:56:42;10.75;;;6.72;;
33836;SDS011;20140;49.356;8.812;2024-01-10T07:59:08;8.98;;;5.55;;
33836;SDS011;20140;49.356;8.812;2024-01-10T08:01:33;11.25;;;6.07;;
33836;SDS011;20140;49.356;8.812;2024-01-10T08:03:59;11.73;;;6.60;;
33836;SDS011;20140;49.356;8.812;2024-01-10T08:06:24;10.40;;;7.23;;
33836;SDS011;20140;49.356;8.812;2024-01-10T08:08:50;12.82;;;6.40;;
33836;SDS011;20140;49.356;8.812;2024-01-10T08:11:16;11.63;;;6.60;;
33836;SDS011;20140;49.356;8.812;2024-01-10T08:13:42;11.23;;;6.97;;
33836;SDS011;20140;49.356;8.812;2024-01-10T08:16:08;9.55;;;6.47;;
33836;SDS011;20140;49.356;8.812;2024-01-10T08:18:34;8.73;;;6.15;;
33836;SDS011;20140;49.356;8.812;2024-01-10T08:21:00;12.50;;;6.25;;
33836;SDS011;20140;49.356;8.812;2024-01-10T08:23:26;12.30;;;6.32;;
33836;SDS011;20140;49.356;8.812;2024-01-10T08:25:53;9.90;;;6.13;;
33836;SDS011;20140;49.356;8.812;2024-01-10T08:28:20;8.80;;;5.47;;
33836;SDS011;20140;49.356;8.812;2024-01-10T08:30:46;11.40;;;6.97;;
33836;SDS011;20140;49.356;8.812;2024-01-10T08:33:12;10.27;;;6.35;;
33836;SDS011;20140;49.356;8.812;2024-01-10T08:35:37;8.23;;;5.68;;
33836;SDS011;20140;49.356;8.812;2024-01-10T08:38:04;9.32;;;6.80;;
33836;SDS011;20140;49.356;8.812;2024-01-10T08:40:32;8.65;;;6.78;;
33836;SDS011;20140;49.356;8.812;2024-01-10T08:42:57;9.25;;;6.20;;
33836;SDS011;20140;49.356;8.812;2024-01-10T08:45:23;11.75;;;6.55;;
33836;SDS011;20140;49.356;8.812;2024-01-10T08:47:49;9.25;;;6.03;;
33836;SDS011;20140;49.356;8.812;2024-01-10T08:50:16;10.63;;;6.75;;
33836;SDS011;20140;49.356;8.812;2024-01-10T08:52:44;13.00;;;7.60;;
33836;SDS011;20140;49.356;8.812;2024-01-10T08:55:09;8.30;;;5.93;;
33836;SDS011;20140;49.356;8.812;2024-01-10T08:57:36;10.35;;;6.10;;
33836;SDS011;20140;49.356;8.812;2024-01-10T09:00:01;8.87;;;5.93;;
33836;SDS011;20140;49.356;8.812;2024-01-10T09:02:31;11.50;;;6.63;;
33836;SDS011;20140;49.356;8.812;2024-01-10T09:04:58;9.80;;;5.35;;
33836;SDS011;20140;49.356;8.812;2024-01-10T09:07:23;9.03;;;6.33;;
33836;SDS011;20140;49.356;8.812;2024-01-10T09:09:50;10.63;;;6.53;;
33836;SDS011;20140;49.356;8.812;2024-01-10T09:12:16;9.90;;;6.78;;
33836;SDS011;20140;49.356;8.812;2024-01-10T09:14:43;8.32;;;5.80;;
33836;SDS011;20140;49.356;8.812;2024-01-10T09:17:09;9.47;;;6.70;;
33836;SDS011;20140;49.356;8.812;2024-01-10T09:19:34;9.57;;;6.77;;
33836;SDS011;20140;49.356;8.812;2024-01-10T09:22:00;11.57;;;7.27;;
33836;SDS011;20140;49.356;8.812;2024-01-10T09:24:26;9.50;;;7.22;;
33836;SDS011;20140;49.356;8.812;2024-01-10T09:26:52;12.85;;;7.65;;
33836;SDS011;20140;49.356;8.812;2024-01-10T09:29:18;14.75;;;8.32;;
33836;SDS011;20140;49.356;8.812;2024-01-10T09:31:44;12.15;;;7.13;;
33836;SDS011;20140;49.356;8.812;2024-01-10T09:34:09;8.40;;;5.63;;
33836;SDS011;20140;49.356;8.812;2024-01-10T09:36:35;13.57;;;7.07;;
33836;SDS011;20140;49.356;8.812;2024-01-10T09:39:01;8.83;;;6.17;;
33836;SDS011;20140;49.356;8.812;2024-01-10T09:41:30;10.15;;;6.47;;
33836;SDS011;20140;49.356;8.812;2024-01-10T09:44:01;11.85;;;7.15;;
33836;SDS011;20140;49.356;8.812;2024-01-10T09:46:27;10.80;;;6.00;;
33836;SDS011;20140;49.356;8.812;2024-01-10T09:48:54;9.80;;;7.10;;
33836;SDS011;20140;49.356;8.812;2024-01-10T09:51:20;10.47;;;6.90;;
33836;SDS011;20140;49.356;8.812;2024-01-10T09:53:47;12.37;;;6.70;;
33836;SDS011;20140;49.356;8.812;2024-01-10T09:56:15;9.05;;;6.35;;
33836;SDS011;20140;49.356;8.812;2024-01-10T09:58:43;9.87;;;6.50;;
33836;SDS011;20140;49.356;8.812;2024-01-10T10:01:10;10.30;;;6.50;;
33836;SDS011;20140;49.356;8.812;2024-01-10T10:03:36;11.30;;;7.27;;
33836;SDS011;20140;49.356;8.812;2024-01-10T10:06:05;10.70;;;6.18;;
33836;SDS011;20140;49.356;8.812;2024-01-10T10:08:32;11.60;;;7.38;;
33836;SDS011;20140;49.356;8.812;2024-01-10T10:10:58;12.60;;;8.07;;
33836;SDS011;20140;49.356;8.812;2024-01-10T10:13:27;10.43;;;7.07;;
33836;SDS011;20140;49.356;8.812;2024-01-10T10:16:00;11.32;;;7.18;;
33836;SDS011;20140;49.356;8.812;2024-01-10T10:18:27;9.00;;;6.70;;
33836;SDS011;20140;49.356;8.812;2024-01-10T10:21:09;11.23;;;7.50;;
33836;SDS011;20140;49.356;8.812;2024-01-10T10:23:37;12.77;;;6.78;;
33836;SDS011;20140;49.356;8.812;2024-01-10T10:26:16;10.93;;;7.35;;
33836;SDS011;20140;49.356;8.812;2024-01-10T10:28:45;10.65;;;6.82;;
33836;SDS011;20140;49.356;8.812;2024-01-10T10:31:12;11.13;;;7.53;;
33836;SDS011;20140;49.356;8.812;2024-01-10T10:33:38;11.40;;;6.93;;
33836;SDS011;20140;49.356;8.812;2024-01-10T10:36:04;13.13;;;8.95;;
33836;SDS011;20140;49.356;8.812;2024-01-10T10:38:31;12.07;;;7.53;;
33836;SDS011;20140;49.356;8.812;2024-01-10T10:40:57;11.30;;;7.03;;
33836;SDS011;20140;49.356;8.812;2024-01-10T10:43:26;11.43;;;6.95;;
33836;SDS011;20140;49.356;8.812;2024-01-10T10:45:58;10.47;;;6.70;;
33836;SDS011;20140;49.356;8.812;2024-01-10T10:48:25;10.85;;;7.05;;
33836;SDS011;20140;49.356;8.812;2024-01-10T10:51:08;14.43;;;7.03;;
33836;SDS011;20140;49.356;8.812;2024-01-10T10:53:47;9.05;;;6.38;;
33836;SDS011;20140;49.356;8.812;2024-01-10T10:56:14;11.48;;;7.78;;
33836;SDS011;20140;49.356;8.812;2024-01-10T10:58:40;11.67;;;7.60;;
33836;SDS011;20140;49.356;8.812;2024-01-10T11:01:11;12.07;;;7.70;;
33836;SDS011;20140;49.356;8.812;2024-01-10T11:03:38;10.68;;;7.47;;
33836;SDS011;20140;49.356;8.812;2024-01-10T11:06:05;13.02;;;8.18;;
33836;SDS011;20140;49.356;8.812;2024-01-10T11:08:35;9.73;;;6.87;;
33836;SDS011;20140;49.356;8.812;2024-01-10T11:11:34;11.02;;;7.13;;
33836;SDS011;20140;49.356;8.812;2024-01-10T11:20:07;12.67;;;7.80;;
33836;SDS011;20140;49.356;8.812;2024-01-10T11:22:57;11.57;;;6.95;;
33836;SDS011;20140;49.356;8.812;2024-01-10T11:25:53;12.98;;;7.80;;
33836;SDS011;20140;49.356;8.812;2024-01-10T11:28:18;13.23;;;7.27;;
33836;SDS011;20140;49.356;8.812;2024-01-10T11:30:48;10.90;;;7.60;;
33836;SDS011;20140;49.356;8.812;2024-01-10T11:33:20;12.93;;;7.93;;
33836;SDS011;20140;49.356;8.812;2024-01-10T11:38:48;13.15;;;7.47;;
33836;SDS011;20140;49.356;8.812;2024-01-10T11:41:15;15.00;;;9.50;;
33836;SDS011;20140;49.356;8.812;2024-01-10T11:46:49;13.73;;;8.25;;
33836;SDS011;20140;49.356;8.812;2024-01-10T11:49:19;11.93;;;7.53;;
33836;SDS011;20140;49.356;8.812;2024-01-10T11:51:46;13.40;;;8.82;;
33836;SDS011;20140;49.356;8.812;2024-01-10T11:57:01;14.32;;;7.05;;
33836;SDS011;20140;49.356;8.812;2024-01-10T11:59:27;13.03;;;7.73;;
33836;SDS011;20140;49.356;8.812;2024-01-10T12:01:55;14.07;;;9.32;;
33836;SDS011;20140;49.356;8.812;2024-01-10T12:04:21;12.90;;;7.38;;
33836;SDS011;20140;49.356;8.812;2024-01-10T12:06:46;12.40;;;8.40;;
33836;SDS011;20140;49.356;8.812;2024-01-10T12:09:12;12.98;;;8.82;;
33836;SDS011;20140;49.356;8.812;2024-01-10T12:11:39;11.07;;;7.97;;
33836;SDS011;20140;49.356;8.812;2024-01-10T12:14:05;11.30;;;7.85;;
33836;SDS011;20140;49.356;8.812;2024-01-10T12:16:34;10.98;;;8.00;;
33836;SDS011;20140;49.356;8.812;2024-01-10T12:19:00;11.68;;;7.90;;
33836;SDS011;20140;49.356;8.812;2024-01-10T12:21:26;13.80;;;8.23;;
33836;SDS011;20140;49.356;8.812;2024-01-10T12:23:51;13.07;;;8.47;;
33836;SDS011;20140;49.356;8.812;2024-01-10T12:26:18;13.67;;;8.97;;
33836;SDS011;20140;49.356;8.812;2024-01-10T12:28:53;12.83;;;8.00;;
33836;SDS011;20140;49.356;8.812;2024-01-10T12:31:19;14.20;;;9.10;;
33836;SDS011;20140;49.356;8.812;2024-01-10T12:33:47;14.55;;;9.85;;
33836;SDS011;20140;49.356;8.812;2024-01-10T12:36:13;12.80;;;8.53;;
33836;SDS011;20140;49.356;8.812;2024-01-10T12:38:41;14.60;;;9.60;;
33836;SDS011;20140;49.356;8.812;2024-01-10T12:41:07;13.52;;;8.32;;
33836;SDS011;20140;49.356;8.812;2024-01-10T15:31:23;11.57;;;7.20;;
33836;SDS011;20140;49.356;8.812;2024-01-10T15:33:50;11.18;;;7.20;;
33836;SDS011;20140;49.356;8.812;2024-01-10T15:36:16;13.00;;;7.47;;
33836;SDS011;20140;49.356;8.812;2024-01-10T15:38:42;10.82;;;7.40;;
33836;SDS011;20140;49.356;8.812;2024-01-10T15:41:09;13.80;;;7.32;;
33836;SDS011;20140;49.356;8.812;2024-01-10T15:43:35;11.15;;;6.82;;
33836;SDS011;20140;49.356;8.812;2024-01-10T15:46:01;13.25;;;7.43;;
33836;SDS011;20140;49.356;8.812;2024-01-10T15:48:27;15.07;;;7.18;;
